createdAt,value
2023-04-10T00:00:27.791Z,63.4222
2023-04-10T00:01:30.122Z,63.5653
2023-04-10T00:02:32.536Z,63.7909
2023-04-10T00:03:34.883Z,63.9395
2023-04-10T00:04:37.249Z,63.7894
2023-04-10T00:05:39.470Z,63.8659
2023-04-10T00:06:41.791Z,63.7243
2023-04-10T00:07:44.130Z,63.7486
2023-04-10T00:08:46.509Z,63.8911
2023-04-10T00:09:48.839Z,63.8922
2023-04-10T00:10:51.156Z,63.7401
2023-04-10T00:11:53.467Z,63.7625
2023-04-10T00:12:55.795Z,64.0452
2023-04-10T00:13:58.135Z,63.9984
2023-04-10T00:15:00.525Z,64.0948
2023-04-10T00:16:02.875Z,63.9275
2023-04-10T00:17:05.164Z,63.6815
2023-04-10T00:18:07.549Z,63.3688
2023-04-10T00:19:09.848Z,63.0142
2023-04-10T00:20:12.207Z,62.7835
2023-04-10T00:21:14.570Z,62.4174
2023-04-10T00:22:16.829Z,61.8419
2023-04-10T00:23:19.253Z,62.1981
2023-04-10T00:24:21.503Z,62.0888
2023-04-10T00:25:23.888Z,61.5267
2023-04-10T00:26:26.210Z,61.5669
2023-04-10T00:27:28.543Z,61.8190
2023-04-10T00:28:30.884Z,62.1170
2023-04-10T00:29:33.183Z,61.1187
2023-04-10T00:30:35.562Z,61.3719
2023-04-10T00:31:37.874Z,62.3057
2023-04-10T00:32:40.339Z,62.1772
2023-04-10T00:33:42.669Z,61.8933
2023-04-10T00:34:45.033Z,62.1031
2023-04-10T00:35:47.300Z,62.6290
2023-04-10T00:36:49.698Z,62.0293
2023-04-10T00:37:51.964Z,62.0999
2023-04-10T00:38:54.374Z,62.3334
2023-04-10T00:39:56.651Z,62.6148
2023-04-10T00:40:59.001Z,62.1823
2023-04-10T00:42:01.313Z,61.9066
2023-04-10T00:43:03.697Z,61.8368
2023-04-10T00:44:06.050Z,62.0298
2023-04-10T00:45:08.363Z,62.4700
2023-04-10T00:46:10.707Z,62.5973
2023-04-10T00:47:13.041Z,62.7398
2023-04-10T00:48:15.386Z,62.9288
2023-04-10T00:49:17.662Z,62.9147
2023-04-10T00:50:20.719Z,62.8291
2023-04-10T00:51:22.402Z,62.8651
2023-04-10T00:52:24.716Z,63.3415
2023-04-10T00:53:27.094Z,63.4965
2023-04-10T00:54:29.392Z,63.0938
2023-04-10T00:55:31.711Z,63.1829
2023-04-10T00:56:34.024Z,63.4455
2023-04-10T00:57:36.378Z,63.2111
2023-04-10T00:58:38.712Z,63.1943
2023-04-10T00:59:41.058Z,63.3646
2023-04-10T01:00:43.400Z,63.2073
2023-04-10T01:01:45.840Z,62.9143
2023-04-10T01:02:48.228Z,62.7799
2023-04-10T01:03:50.439Z,62.7786
2023-04-10T01:04:53.211Z,62.9650
2023-04-10T01:05:55.040Z,63.2456
2023-04-10T01:06:57.412Z,63.6554
2023-04-10T01:07:59.720Z,63.6605
2023-04-10T01:09:02.139Z,63.5553
2023-04-10T01:10:04.393Z,63.3291
2023-04-10T01:11:06.778Z,63.2620
2023-04-10T01:12:09.055Z,63.2861
2023-04-10T01:13:11.380Z,63.4924
2023-04-10T01:14:13.805Z,63.5493
2023-04-10T01:15:16.093Z,63.7000
2023-04-10T01:16:18.444Z,63.9546
2023-04-10T01:17:20.753Z,63.9941
2023-04-10T01:18:23.105Z,64.2561
2023-04-10T01:19:25.445Z,64.1311
2023-04-10T01:20:27.806Z,64.1492
2023-04-10T01:21:30.103Z,64.1882
2023-04-10T01:22:32.439Z,63.9759
2023-04-10T01:23:34.808Z,64.4362
2023-04-10T01:24:37.069Z,64.3176
2023-04-10T01:25:39.454Z,64.2087
2023-04-10T01:26:41.792Z,64.2566
2023-04-10T01:27:44.142Z,64.0119
2023-04-10T01:28:46.443Z,64.0613
2023-04-10T01:29:49.198Z,64.1782
2023-04-10T01:30:51.197Z,64.1481
2023-04-10T01:31:53.496Z,64.4302
2023-04-10T01:32:55.845Z,64.4304
2023-04-10T01:33:58.218Z,64.1609
2023-04-10T01:35:00.457Z,64.1725
2023-04-10T01:36:02.937Z,64.2224
2023-04-10T01:37:05.110Z,64.3070
2023-04-10T01:38:07.419Z,64.3273
2023-04-10T01:39:09.756Z,64.2221
2023-04-10T01:40:12.132Z,64.0644
2023-04-10T01:41:14.524Z,64.0378
2023-04-10T01:42:16.785Z,63.8419
2023-04-10T01:43:19.147Z,63.9895
2023-04-10T01:44:21.473Z,64.1505
2023-04-10T01:45:23.809Z,64.1248
2023-04-10T01:46:26.194Z,64.0449
2023-04-10T01:47:28.498Z,63.6788
2023-04-10T01:48:30.838Z,63.8026
2023-04-10T01:49:33.120Z,63.8288
2023-04-10T01:50:35.469Z,63.8770
2023-04-10T01:51:37.845Z,63.9409
2023-04-10T01:52:40.172Z,64.0087
2023-04-10T01:53:42.449Z,64.1990
2023-04-10T01:54:44.813Z,64.0848
2023-04-10T01:55:47.122Z,63.8925
2023-04-10T01:56:49.480Z,64.0739
2023-04-10T01:57:51.853Z,63.9612
2023-04-10T01:58:54.145Z,64.1616
2023-04-10T01:59:57.189Z,64.3392
2023-04-10T02:00:58.927Z,64.5065
2023-04-10T02:02:01.319Z,64.5138
2023-04-10T02:03:03.630Z,64.5516
2023-04-10T02:04:05.922Z,64.6402
2023-04-10T02:05:08.157Z,64.7371
2023-04-10T02:06:10.458Z,64.5325
2023-04-10T02:07:12.834Z,64.7687
2023-04-10T02:08:15.143Z,64.8044
2023-04-10T02:09:17.460Z,64.6756
2023-04-10T02:10:19.783Z,64.5624
2023-04-10T02:11:22.153Z,64.4591
2023-04-10T02:12:24.477Z,64.2757
2023-04-10T02:13:26.844Z,64.3027
2023-04-10T02:14:29.146Z,64.1731
2023-04-10T02:15:31.453Z,63.9932
2023-04-10T02:16:33.875Z,63.7760
2023-04-10T02:17:36.201Z,63.7301
2023-04-10T02:18:38.478Z,63.8335
2023-04-10T02:19:40.835Z,64.0367
2023-04-10T02:20:43.125Z,64.1796
2023-04-10T02:21:45.492Z,64.3692
2023-04-10T02:22:47.780Z,64.5238
2023-04-10T02:23:50.182Z,64.3320
2023-04-10T02:24:52.448Z,64.4793
2023-04-10T02:25:54.807Z,64.4150
2023-04-10T02:26:57.203Z,64.8295
2023-04-10T02:28:00.184Z,65.0429
2023-04-10T02:29:01.844Z,65.1707
2023-04-10T02:30:04.159Z,64.8993
2023-04-10T02:31:06.497Z,64.7206
2023-04-10T02:32:08.868Z,64.6874
2023-04-10T02:33:11.167Z,64.3476
2023-04-10T02:34:13.610Z,64.1576
2023-04-10T02:35:15.857Z,64.2597
2023-04-10T02:36:18.152Z,64.3761
2023-04-10T02:37:20.474Z,64.3517
2023-04-10T02:38:22.813Z,64.4106
2023-04-10T02:39:25.220Z,64.3623
2023-04-10T02:40:27.501Z,64.8233
2023-04-10T02:41:29.864Z,64.8956
2023-04-10T02:42:32.152Z,64.6040
2023-04-10T02:43:34.488Z,64.3197
2023-04-10T02:44:36.785Z,64.1404
2023-04-10T02:45:39.136Z,64.5777
2023-04-10T02:46:41.466Z,64.3737
2023-04-10T02:47:43.911Z,64.1443
2023-04-10T02:48:46.159Z,64.4005
2023-04-10T02:49:48.504Z,64.6145
2023-04-10T02:50:51.673Z,64.4611
2023-04-10T02:51:53.131Z,64.2860
2023-04-10T02:52:55.481Z,64.3314
2023-04-10T02:53:57.805Z,64.5478
2023-04-10T02:55:00.131Z,64.7516
2023-04-10T02:56:02.573Z,64.6829
2023-04-10T02:57:04.809Z,64.6042
2023-04-10T02:58:07.135Z,64.2080
2023-04-10T02:59:09.430Z,63.4885
2023-04-10T03:00:11.794Z,63.5533
2023-04-10T03:01:14.143Z,62.7054
2023-04-10T03:02:16.510Z,62.7731
2023-04-10T03:03:18.900Z,62.2971
2023-04-10T03:04:21.257Z,62.0781
2023-04-10T03:05:23.449Z,62.6712
2023-04-10T03:06:25.817Z,63.3409
2023-04-10T03:07:28.111Z,62.5813
2023-04-10T03:08:30.466Z,62.0258
2023-04-10T03:09:32.794Z,61.4145
2023-04-10T03:10:35.106Z,62.3928
2023-04-10T03:11:37.466Z,63.0463
2023-04-10T03:12:39.792Z,62.9468
2023-04-10T03:13:42.111Z,62.5545
2023-04-10T03:14:44.541Z,62.8721
2023-04-10T03:15:46.808Z,62.2479
2023-04-10T03:16:49.110Z,61.6348
2023-04-10T03:17:51.457Z,61.5489
2023-04-10T03:18:53.835Z,62.4495
2023-04-10T03:19:56.123Z,62.7110
2023-04-10T03:20:58.454Z,63.0721
2023-04-10T03:22:00.793Z,63.4381
2023-04-10T03:23:03.147Z,63.5862
2023-04-10T03:24:05.486Z,63.7079
2023-04-10T03:25:07.791Z,64.0530
2023-04-10T03:26:10.159Z,64.3808
2023-04-10T03:27:12.479Z,64.1139
2023-04-10T03:28:14.820Z,64.4018
2023-04-10T03:29:17.655Z,65.1625
2023-04-10T03:30:19.501Z,65.0026
2023-04-10T03:31:21.886Z,64.7124
2023-04-10T03:32:24.182Z,64.8004
2023-04-10T03:33:26.499Z,64.7783
2023-04-10T03:34:28.832Z,64.7375
2023-04-10T03:35:31.242Z,64.8757
2023-04-10T03:36:33.502Z,64.7443
2023-04-10T03:37:35.871Z,64.6540
2023-04-10T03:38:38.171Z,64.8711
2023-04-10T03:39:40.525Z,64.9563
2023-04-10T03:40:44.158Z,64.8394
2023-04-10T03:41:45.250Z,64.9591
2023-04-10T03:42:47.514Z,64.9487
2023-04-10T03:43:49.856Z,64.7504
2023-04-10T03:44:52.250Z,64.5267
2023-04-10T03:45:54.530Z,64.6596
2023-04-10T03:46:56.914Z,64.5914
2023-04-10T03:48:00.281Z,64.8453
2023-04-10T03:49:01.568Z,65.1258
2023-04-10T03:50:03.910Z,65.1902
2023-04-10T03:51:06.225Z,65.2831
2023-04-10T03:52:08.557Z,65.2215
2023-04-10T03:53:10.956Z,65.1132
2023-04-10T03:54:13.247Z,65.1043
2023-04-10T03:55:15.569Z,65.2895
2023-04-10T03:56:17.924Z,65.2156
2023-04-10T03:57:20.247Z,65.1505
2023-04-10T03:58:22.614Z,64.7096
2023-04-10T03:59:37.357Z,64.7596
2023-04-10T04:00:27.293Z,65.1109
2023-04-10T04:01:29.617Z,65.1206
2023-04-10T04:02:32.055Z,65.1767
2023-04-10T04:03:34.456Z,65.6522
2023-04-10T04:04:36.831Z,65.8742
2023-04-10T04:05:38.955Z,65.8946
2023-04-10T04:06:41.270Z,65.7109
2023-04-10T04:07:43.626Z,65.9635
2023-04-10T04:08:45.960Z,65.9455
2023-04-10T04:09:48.288Z,65.7744
2023-04-10T04:10:50.618Z,65.7241
2023-04-10T04:11:52.940Z,65.8433
2023-04-10T04:12:55.283Z,65.7722
2023-04-10T04:13:57.658Z,65.3351
2023-04-10T04:14:59.950Z,64.9749
2023-04-10T04:16:02.290Z,64.8502
2023-04-10T04:17:04.736Z,65.1502
2023-04-10T04:18:06.963Z,65.3842
2023-04-10T04:19:09.750Z,65.0772
2023-04-10T04:20:11.638Z,64.8722
2023-04-10T04:21:13.952Z,64.7290
2023-04-10T04:22:16.321Z,64.8374
2023-04-10T04:23:18.626Z,65.3780
2023-04-10T04:24:20.991Z,66.0015
2023-04-10T04:25:23.322Z,66.2960
2023-04-10T04:26:25.695Z,66.2621
2023-04-10T04:27:27.998Z,65.8610
2023-04-10T04:28:30.550Z,65.7034
2023-04-10T04:29:32.666Z,65.4016
2023-04-10T04:30:34.989Z,65.2607
2023-04-10T04:31:58.548Z,65.2148
2023-04-10T04:32:40.169Z,65.3414
2023-04-10T04:33:42.087Z,65.2470
2023-04-10T04:34:44.345Z,65.1392
2023-04-10T04:35:46.730Z,65.0412
2023-04-10T04:36:49.088Z,64.9694
2023-04-10T04:37:51.386Z,64.9509
2023-04-10T04:38:53.756Z,65.2237
2023-04-10T04:39:56.161Z,65.3597
2023-04-10T04:40:58.469Z,65.2134
2023-04-10T04:42:00.828Z,65.0274
2023-04-10T04:43:03.211Z,64.9080
2023-04-10T04:44:05.501Z,64.6654
2023-04-10T04:45:07.826Z,64.8993
2023-04-10T04:46:10.183Z,64.9510
2023-04-10T04:47:12.520Z,65.1685
2023-04-10T04:48:14.852Z,65.1641
2023-04-10T04:49:17.156Z,65.1056
2023-04-10T04:50:19.501Z,64.9887
2023-04-10T04:51:21.859Z,65.0747
2023-04-10T04:52:24.181Z,65.2431
2023-04-10T04:53:26.506Z,65.3856
2023-04-10T04:54:28.847Z,65.3573
2023-04-10T04:55:31.192Z,65.4627
2023-04-10T04:56:33.520Z,65.5072
2023-04-10T04:57:35.883Z,65.4404
2023-04-10T04:58:38.189Z,65.3434
2023-04-10T04:59:40.525Z,65.3848
2023-04-10T05:00:42.837Z,65.4347
2023-04-10T05:01:45.277Z,65.5095
2023-04-10T05:02:47.636Z,65.4922
2023-04-10T05:03:49.991Z,65.6379
2023-04-10T05:04:52.203Z,65.5797
2023-04-10T05:05:54.549Z,65.4199
2023-04-10T05:06:56.888Z,65.7033
2023-04-10T05:07:59.255Z,65.8718
2023-04-10T05:09:01.575Z,65.7718
2023-04-10T05:10:03.922Z,65.7351
2023-04-10T05:11:06.249Z,65.6339
2023-04-10T05:12:08.590Z,65.6677
2023-04-10T05:13:10.893Z,65.7441
2023-04-10T05:14:13.211Z,65.8130
2023-04-10T05:15:15.593Z,65.9553
2023-04-10T05:16:18.007Z,66.0498
2023-04-10T05:17:20.261Z,65.7196
2023-04-10T05:18:22.606Z,65.9167
2023-04-10T05:19:24.932Z,66.0668
2023-04-10T05:20:27.229Z,66.1214
2023-04-10T05:21:29.569Z,65.9902
2023-04-10T05:22:31.929Z,66.1351
2023-04-10T05:23:34.265Z,66.1707
2023-04-10T05:24:36.592Z,66.1613
2023-04-10T05:25:38.967Z,65.9141
2023-04-10T05:26:41.257Z,66.0296
2023-04-10T05:27:43.609Z,65.9691
2023-04-10T05:28:45.941Z,65.9072
2023-04-10T05:29:48.267Z,65.8642
2023-04-10T05:30:50.698Z,66.0825
2023-04-10T05:31:53.383Z,66.1144
2023-04-10T05:32:55.323Z,65.9461
2023-04-10T05:33:57.614Z,66.2135
2023-04-10T05:34:59.957Z,66.2767
2023-04-10T05:36:02.338Z,66.3924
2023-04-10T05:37:04.620Z,66.0703
2023-04-10T05:38:07.041Z,65.4354
2023-04-10T05:39:09.291Z,64.9306
2023-04-10T05:40:11.588Z,64.5643
2023-04-10T05:41:13.949Z,64.3542
2023-04-10T05:42:16.252Z,64.6416
2023-04-10T05:43:18.624Z,64.3627
2023-04-10T05:44:20.991Z,63.6511
2023-04-10T05:45:23.268Z,63.6061
2023-04-10T05:46:25.625Z,63.9570
2023-04-10T05:47:27.975Z,63.9053
2023-04-10T05:48:30.257Z,64.0701
2023-04-10T05:49:32.615Z,64.6561
2023-04-10T05:50:34.941Z,64.0160
2023-04-10T05:51:37.289Z,63.7390
2023-04-10T05:52:39.598Z,63.0316
2023-04-10T05:53:41.923Z,63.4120
2023-04-10T05:54:44.251Z,62.7791
2023-04-10T05:55:46.627Z,63.0160
2023-04-10T05:56:48.983Z,63.9269
2023-04-10T05:57:51.291Z,64.3663
2023-04-10T05:58:53.790Z,64.9468
2023-04-10T05:59:55.941Z,65.3444
2023-04-10T06:00:58.288Z,65.8347
2023-04-10T06:02:00.640Z,65.7390
2023-04-10T06:03:03.079Z,65.7978
2023-04-10T06:04:05.391Z,66.0004
2023-04-10T06:05:07.683Z,66.2598
2023-04-10T06:06:09.949Z,66.4156
2023-04-10T06:07:12.317Z,66.1954
2023-04-10T06:08:14.639Z,66.3824
2023-04-10T06:09:16.988Z,66.7547
2023-04-10T06:10:19.293Z,67.1189
2023-04-10T06:11:21.638Z,67.2140
2023-04-10T06:12:23.981Z,66.7045
2023-04-10T06:13:27.096Z,66.7207
2023-04-10T06:14:28.693Z,66.8423
2023-04-10T06:15:31.013Z,66.4426
2023-04-10T06:16:33.444Z,66.2877
2023-04-10T06:17:35.690Z,66.3868
2023-04-10T06:18:37.985Z,66.2757
2023-04-10T06:19:40.352Z,66.2385
2023-04-10T06:20:42.652Z,66.2265
2023-04-10T06:21:45.034Z,66.0761
2023-04-10T06:22:48.098Z,65.9470
2023-04-10T06:23:50.588Z,65.8572
2023-04-10T06:24:51.965Z,65.5075
2023-04-10T06:25:54.321Z,65.0501
2023-04-10T06:26:56.705Z,64.9198
2023-04-10T06:27:59.291Z,65.0126
2023-04-10T06:29:01.380Z,65.3460
2023-04-10T06:30:03.654Z,65.2164
2023-04-10T06:31:06.027Z,65.0501
2023-04-10T06:32:08.310Z,64.5657
2023-04-10T06:33:10.610Z,64.2822
2023-04-10T06:34:14.126Z,64.1792
2023-04-10T06:35:15.381Z,63.9978
2023-04-10T06:36:17.653Z,63.9481
2023-04-10T06:37:19.992Z,64.3306
2023-04-10T06:38:22.340Z,64.5129
2023-04-10T06:39:24.669Z,64.5164
2023-04-10T06:40:27.601Z,64.3010
2023-04-10T06:41:29.337Z,64.2067
2023-04-10T06:42:31.698Z,63.9907
2023-04-10T06:43:34.010Z,64.3561
2023-04-10T06:44:36.393Z,64.1969
2023-04-10T06:45:38.697Z,64.0517
2023-04-10T06:46:41.059Z,63.9870
2023-04-10T06:47:43.512Z,63.9249
2023-04-10T06:48:45.734Z,63.7489
2023-04-10T06:49:48.591Z,63.6831
2023-04-10T06:50:50.322Z,63.9523
2023-04-10T06:51:52.634Z,63.8412
2023-04-10T06:52:54.996Z,63.5814
2023-04-10T06:53:57.304Z,63.7154
2023-04-10T06:54:59.809Z,63.8907
2023-04-10T06:56:03.640Z,64.7704
2023-04-10T06:57:04.359Z,65.2093
2023-04-10T06:58:06.705Z,65.6739
2023-04-10T06:59:09.003Z,64.9082
2023-04-10T07:00:11.341Z,64.1823
2023-04-10T07:01:13.680Z,63.1035
2023-04-10T07:02:16.092Z,62.5275
2023-04-10T07:03:18.451Z,62.9218
2023-04-10T07:04:20.660Z,63.1423
2023-04-10T07:05:23.007Z,64.3546
2023-04-10T07:06:25.365Z,64.8468
2023-04-10T07:07:27.698Z,64.3287
2023-04-10T07:08:30.058Z,64.0573
2023-04-10T07:09:32.369Z,63.6711
2023-04-10T07:10:34.723Z,63.4179
2023-04-10T07:11:37.018Z,63.4980
2023-04-10T07:12:39.359Z,63.0571
2023-04-10T07:13:41.686Z,62.9470
2023-04-10T07:14:44.042Z,63.1936
2023-04-10T07:15:46.365Z,63.4013
2023-04-10T07:16:48.744Z,64.6645
2023-04-10T07:17:51.067Z,64.7127
2023-04-10T07:18:53.846Z,63.8957
2023-04-10T07:19:55.719Z,63.5099
2023-04-10T07:20:58.095Z,63.3877
2023-04-10T07:22:00.376Z,62.6881
2023-04-10T07:23:02.723Z,62.2446
2023-04-10T07:24:05.055Z,61.9252
2023-04-10T07:25:07.388Z,61.1311
2023-04-10T07:26:09.710Z,61.1058
2023-04-10T07:27:12.086Z,61.1112
2023-04-10T07:28:14.380Z,61.4416
2023-04-10T07:29:16.702Z,61.4644
2023-04-10T07:30:19.121Z,61.8877
2023-04-10T07:31:21.481Z,61.8497
2023-04-10T07:32:24.087Z,61.2843
2023-04-10T07:33:26.094Z,61.1195
2023-04-10T07:34:28.396Z,61.4017
2023-04-10T07:35:30.735Z,60.6989
2023-04-10T07:36:33.072Z,60.4126
2023-04-10T07:37:35.458Z,61.7128
2023-04-10T07:38:37.754Z,61.5455
2023-04-10T07:39:40.075Z,61.0593
2023-04-10T07:40:42.415Z,61.0286
2023-04-10T07:41:44.747Z,61.0165
2023-04-10T07:42:47.117Z,60.5256
2023-04-10T07:43:49.424Z,60.5078
2023-04-10T07:44:51.820Z,61.7058
2023-04-10T07:45:54.114Z,63.1067
2023-04-10T07:46:56.453Z,62.9853
2023-04-10T07:47:58.819Z,62.8528
2023-04-10T07:49:01.109Z,63.5828
2023-04-10T07:50:03.461Z,64.0111
2023-04-10T07:51:05.765Z,62.4623
2023-04-10T07:52:08.158Z,61.5745
2023-04-10T07:53:10.465Z,61.0342
2023-04-10T07:54:12.791Z,61.5178
2023-04-10T07:55:15.160Z,61.9521
2023-04-10T07:56:17.541Z,61.4153
2023-04-10T07:57:20.017Z,61.3121
2023-04-10T07:58:22.140Z,61.1565
2023-04-10T07:59:24.443Z,60.0161
2023-04-10T08:00:26.812Z,59.7743
2023-04-10T08:01:29.151Z,60.3862
2023-04-10T08:02:31.641Z,59.6291
2023-04-10T08:03:34.671Z,58.8347
2023-04-10T08:04:36.410Z,58.9270
2023-04-10T08:05:38.511Z,59.6406
2023-04-10T08:06:40.848Z,60.1613
2023-04-10T08:07:43.125Z,59.3959
2023-04-10T08:08:45.494Z,58.7015
2023-04-10T08:09:47.786Z,57.3936
2023-04-10T08:10:50.127Z,56.5749
2023-04-10T08:11:52.495Z,56.5792
2023-04-10T08:12:54.804Z,55.1400
2023-04-10T08:13:57.152Z,54.3421
2023-04-10T08:14:59.540Z,54.3266
2023-04-10T08:16:01.828Z,54.9791
2023-04-10T08:17:04.303Z,55.3386
2023-04-10T08:18:06.504Z,55.0939
2023-04-10T08:19:08.821Z,56.0278
2023-04-10T08:20:11.183Z,55.8111
2023-04-10T08:21:13.505Z,54.4248
2023-04-10T08:22:15.869Z,53.7288
2023-04-10T08:23:20.856Z,52.8125
2023-04-10T08:24:20.523Z,52.9203
2023-04-10T08:25:22.954Z,52.6217
2023-04-10T08:26:25.230Z,53.8087
2023-04-10T08:27:27.545Z,53.0452
2023-04-10T08:28:29.930Z,51.8463
2023-04-10T08:29:32.259Z,51.5862
2023-04-10T08:30:34.590Z,51.2951
2023-04-10T08:31:36.885Z,52.3868
2023-04-10T08:32:39.297Z,53.4539
2023-04-10T08:33:41.969Z,52.0451
2023-04-10T08:34:43.981Z,51.8955
2023-04-10T08:35:46.356Z,51.8536
2023-04-10T08:36:48.606Z,51.9548
2023-04-10T08:38:07.809Z,51.8900
2023-04-10T08:38:53.283Z,51.9257
2023-04-10T08:39:55.594Z,52.1271
2023-04-10T08:40:57.969Z,51.0897
2023-04-10T08:42:00.294Z,50.1901
2023-04-10T08:43:02.663Z,49.9758
2023-04-10T08:44:05.088Z,49.4995
2023-04-10T08:45:07.395Z,49.3477
2023-04-10T08:46:09.708Z,49.3526
2023-04-10T08:47:12.104Z,48.8909
2023-04-10T08:48:14.396Z,49.5704
2023-04-10T08:49:16.757Z,50.6609
2023-04-10T08:50:19.055Z,49.8309
2023-04-10T08:51:26.172Z,49.2102
2023-04-10T08:52:23.741Z,48.0126
2023-04-10T08:53:26.080Z,47.5697
2023-04-10T08:54:28.444Z,47.2583
2023-04-10T08:55:30.787Z,46.5689
2023-04-10T08:56:33.124Z,46.2476
2023-04-10T08:57:35.484Z,46.0050
2023-04-10T08:58:37.828Z,45.9369
2023-04-10T08:59:40.171Z,45.8456
2023-04-10T09:00:42.490Z,45.7778
2023-04-10T09:01:44.811Z,46.8018
2023-04-10T09:02:47.270Z,45.8951
2023-04-10T09:03:49.621Z,46.0428
2023-04-10T09:04:51.949Z,45.3735
2023-04-10T09:05:54.171Z,45.8698
2023-04-10T09:06:56.506Z,45.3640
2023-04-10T09:07:58.882Z,45.5818
2023-04-10T09:10:03.569Z,43.6536
2023-04-10T09:11:05.886Z,44.3996
2023-04-10T09:12:08.274Z,45.2614
2023-04-10T09:13:10.604Z,44.5086
2023-04-10T09:14:12.938Z,43.9317
2023-04-10T09:15:15.265Z,44.2436
2023-04-10T09:16:17.705Z,44.8713
2023-04-10T09:17:20.074Z,45.2960
2023-04-10T09:18:22.279Z,46.2475
2023-04-10T09:19:24.674Z,44.6618
2023-04-10T09:20:27.015Z,44.1672
2023-04-10T09:21:29.360Z,43.3954
2023-04-10T09:22:31.688Z,43.6061
2023-04-10T09:23:34.031Z,43.4980
2023-04-10T09:24:36.369Z,42.1819
2023-04-10T09:25:38.722Z,42.3839
2023-04-10T09:26:41.058Z,42.5109
2023-04-10T09:27:43.456Z,42.4174
2023-04-10T09:28:45.729Z,42.9081
2023-04-10T09:29:48.088Z,43.2953
2023-04-10T09:30:50.445Z,42.7791
2023-04-10T09:31:52.780Z,43.4959
2023-04-10T09:32:55.142Z,43.6226
2023-04-10T09:33:57.463Z,42.3854
2023-04-10T09:34:59.775Z,41.9528
2023-04-10T09:36:02.164Z,41.8645
2023-04-10T09:37:04.550Z,41.3640
2023-04-10T09:38:06.848Z,41.0593
2023-04-10T09:39:09.191Z,41.3116
2023-04-10T09:40:11.524Z,40.2978
2023-04-10T09:41:14.009Z,40.3790
2023-04-10T09:42:16.203Z,40.8608
2023-04-10T09:43:18.585Z,41.6801
2023-04-10T09:44:20.906Z,42.4038
2023-04-10T09:45:23.245Z,43.1084
2023-04-10T09:46:25.705Z,42.2362
2023-04-10T09:47:27.966Z,41.1268
2023-04-10T09:48:30.325Z,41.6078
2023-04-10T09:49:32.671Z,41.3177
2023-04-10T09:50:37.133Z,40.9923
2023-04-10T09:51:37.338Z,40.4810
2023-04-10T09:52:39.722Z,40.1705
2023-04-10T09:53:42.017Z,39.5602
2023-04-10T09:54:44.444Z,39.1133
2023-04-10T09:55:46.749Z,39.9213
2023-04-10T09:56:49.165Z,39.3937
2023-04-10T09:57:51.449Z,38.8990
2023-04-10T09:58:54.038Z,39.4680
2023-04-10T09:59:56.137Z,39.7273
2023-04-10T10:00:58.437Z,40.0409
2023-04-10T10:02:00.877Z,40.7899
2023-04-10T10:03:03.276Z,40.1378
2023-04-10T10:04:05.466Z,39.9785
2023-04-10T10:05:07.895Z,41.3481
2023-04-10T10:06:10.155Z,42.3084
2023-04-10T10:07:12.521Z,41.2072
2023-04-10T10:08:14.845Z,40.4131
2023-04-10T10:09:17.194Z,41.0688
2023-04-10T10:10:19.536Z,41.2676
2023-04-10T10:11:21.895Z,40.9880
2023-04-10T10:12:24.245Z,41.0262
2023-04-10T10:13:26.580Z,41.6581
2023-04-10T10:14:28.919Z,42.9493
2023-04-10T10:15:31.342Z,43.7204
2023-04-10T10:16:33.637Z,44.0140
2023-04-10T10:17:35.981Z,42.7840
2023-04-10T10:18:38.286Z,42.3009
2023-04-10T10:19:40.650Z,43.3931
2023-04-10T10:20:42.972Z,43.6102
2023-04-10T10:21:45.323Z,44.3138
2023-04-10T10:22:47.682Z,45.1692
2023-04-10T10:23:50.016Z,45.4633
2023-04-10T10:24:52.383Z,46.0218
2023-04-10T10:25:54.715Z,45.6498
2023-04-10T10:26:57.056Z,45.6517
2023-04-10T10:27:59.401Z,45.6252
2023-04-10T10:29:01.751Z,44.5600
2023-04-10T10:30:11.942Z,45.2013
2023-04-10T10:31:06.463Z,44.6843
2023-04-10T10:32:08.793Z,44.2573
2023-04-10T10:33:11.129Z,44.5910
2023-04-10T10:34:13.474Z,44.5575
2023-04-10T10:35:15.838Z,45.1539
2023-04-10T10:36:18.197Z,44.5298
2023-04-10T10:37:20.516Z,43.3365
2023-04-10T10:38:22.832Z,43.5077
2023-04-10T10:39:25.173Z,45.2161
2023-04-10T10:40:27.532Z,44.8897
2023-04-10T10:41:29.864Z,44.3143
2023-04-10T10:42:32.213Z,45.3928
2023-04-10T10:43:34.554Z,46.7231
2023-04-10T10:44:36.874Z,46.6421
2023-04-10T10:45:39.261Z,47.4282
2023-04-10T10:46:41.567Z,46.7226
2023-04-10T10:47:43.935Z,47.2868
2023-04-10T10:48:46.250Z,48.3222
2023-04-10T10:49:48.583Z,47.2093
2023-04-10T10:50:51.093Z,46.1648
2023-04-10T10:51:53.270Z,45.4309
2023-04-10T10:52:55.605Z,46.3265
2023-04-10T10:53:57.954Z,45.4969
2023-04-10T10:55:00.316Z,45.2549
2023-04-10T10:56:02.726Z,45.4292
2023-04-10T10:57:04.962Z,45.4848
2023-04-10T10:58:07.310Z,45.4498
2023-04-10T10:59:09.645Z,45.8164
2023-04-10T11:00:11.997Z,45.7009
2023-04-10T11:01:14.361Z,44.2615
2023-04-10T11:02:16.821Z,45.1720
2023-04-10T11:03:19.305Z,45.6792
2023-04-10T11:04:21.371Z,46.3629
2023-04-10T11:05:23.716Z,45.4092
2023-04-10T11:06:26.063Z,45.4399
2023-04-10T11:07:28.401Z,44.8184
2023-04-10T11:08:30.752Z,45.0319
2023-04-10T11:09:33.088Z,44.1690
2023-04-10T11:10:35.451Z,44.4678
2023-04-10T11:11:37.776Z,45.1287
2023-04-10T11:12:40.121Z,47.5727
2023-04-10T11:13:42.531Z,47.7534
2023-04-10T11:14:44.823Z,47.4878
2023-04-10T11:15:47.153Z,48.1809
2023-04-10T11:16:49.596Z,46.7560
2023-04-10T11:17:52.316Z,47.1919
2023-04-10T11:19:06.363Z,47.1402
2023-04-10T11:19:56.533Z,47.4892
2023-04-10T11:20:58.885Z,46.7405
2023-04-10T11:22:01.212Z,46.1340
2023-04-10T11:23:03.557Z,47.4628
2023-04-10T11:24:05.920Z,47.0761
2023-04-10T11:25:08.259Z,45.9287
2023-04-10T11:26:10.583Z,45.9042
2023-04-10T11:27:12.939Z,45.0162
2023-04-10T11:28:15.269Z,46.0168
2023-04-10T11:29:17.663Z,46.3576
2023-04-10T11:30:19.961Z,47.2089
2023-04-10T11:31:22.601Z,46.4865
2023-04-10T11:32:24.668Z,45.2799
2023-04-10T11:33:26.999Z,46.2372
2023-04-10T11:34:29.337Z,47.2571
2023-04-10T11:35:31.951Z,47.5044
2023-04-10T11:36:34.043Z,47.1577
2023-04-10T11:37:36.378Z,45.2535
2023-04-10T11:38:38.710Z,45.5938
2023-04-10T11:39:41.059Z,45.0788
2023-04-10T11:40:43.403Z,44.1146
2023-04-10T11:41:45.762Z,44.9678
2023-04-10T11:42:48.099Z,44.8101
2023-04-10T11:43:50.437Z,45.4654
2023-04-10T11:44:52.781Z,45.1610
2023-04-10T11:45:55.171Z,45.4543
2023-04-10T11:46:57.488Z,45.5929
2023-04-10T11:47:59.843Z,46.0294
2023-04-10T11:49:02.198Z,44.8225
2023-04-10T11:50:04.506Z,43.7572
2023-04-10T11:51:06.832Z,45.0277
2023-04-10T11:52:09.242Z,45.6848
2023-04-10T11:53:11.528Z,47.0666
2023-04-10T11:54:13.864Z,47.0328
2023-04-10T11:55:16.218Z,46.6464
2023-04-10T11:56:18.557Z,44.9905
2023-04-10T11:57:20.921Z,44.2996
2023-04-10T11:58:23.264Z,44.1055
2023-04-10T11:59:25.598Z,43.2172
2023-04-10T12:00:27.944Z,43.7161
2023-04-10T12:01:30.293Z,44.2997
2023-04-10T12:02:32.740Z,43.3871
2023-04-10T12:03:35.153Z,43.8135
2023-04-10T12:04:37.789Z,44.4890
2023-04-10T12:05:39.660Z,44.8704
2023-04-10T12:06:42.005Z,45.0162
2023-04-10T12:07:44.362Z,44.4854
2023-04-10T12:08:46.692Z,45.7754
2023-04-10T12:09:49.039Z,45.7899
2023-04-10T12:10:51.379Z,44.3924
2023-04-10T12:11:53.727Z,44.0844
2023-04-10T12:12:56.080Z,43.6890
2023-04-10T12:13:58.412Z,44.5518
2023-04-10T12:15:00.748Z,44.1330
2023-04-10T12:16:03.138Z,44.3478
2023-04-10T12:17:05.425Z,43.3622
2023-04-10T12:18:07.792Z,42.9763
2023-04-10T12:19:10.109Z,42.9774
2023-04-10T12:20:12.484Z,43.1097
2023-04-10T12:21:14.793Z,43.5784
2023-04-10T12:22:17.149Z,43.5978
2023-04-10T12:23:19.496Z,43.1700
2023-04-10T12:24:21.831Z,43.5783
2023-04-10T12:25:24.171Z,44.9569
2023-04-10T12:26:26.513Z,45.9991
2023-04-10T12:27:28.986Z,45.6470
2023-04-10T12:28:31.214Z,45.1192
2023-04-10T12:29:33.538Z,45.0552
2023-04-10T12:30:35.873Z,44.1652
2023-04-10T12:31:38.323Z,43.1231
2023-04-10T12:32:40.590Z,42.7457
2023-04-10T12:33:42.904Z,42.4792
2023-04-10T12:34:45.249Z,42.2224